createdAt,value
2023-03-19T00:03:00.610Z,96982.91
2023-03-19T00:06:02.687Z,96987.66
2023-03-19T00:09:04.591Z,96984.28
2023-03-19T00:12:06.845Z,97001.59
2023-03-19T00:15:14.062Z,96994.28
2023-03-19T00:18:16.148Z,96994.34
2023-03-19T00:21:17.677Z,96997.25
2023-03-19T00:24:19.346Z,96995.88
2023-03-19T00:27:21.038Z,96998.38
2023-03-19T00:30:24.072Z,96995.00
2023-03-19T00:33:26.737Z,96999.88
2023-03-19T00:36:30.072Z,97005.13
2023-03-19T00:39:32.314Z,97008.03
2023-03-19T00:42:34.279Z,97007.34
2023-03-19T00:45:36.051Z,97007.25
2023-03-19T00:48:37.704Z,97004.81
2023-03-19T00:51:43.615Z,97014.00
2023-03-19T00:54:45.372Z,97018.06
2023-03-19T00:57:46.915Z,97017.97
2023-03-19T01:00:48.609Z,97029.59
2023-03-19T01:03:50.126Z,97028.19
2023-03-19T01:06:51.653Z,97026.81
2023-03-19T01:09:53.262Z,97026.59
2023-03-19T01:12:54.752Z,97027.97
2023-03-19T01:15:56.614Z,97025.16
2023-03-19T01:18:58.533Z,97025.50
2023-03-19T01:22:00.150Z,97027.88
2023-03-19T01:25:02.183Z,97023.91
2023-03-19T01:28:03.960Z,97027.50
2023-03-19T01:31:07.720Z,97030.50
2023-03-19T01:34:36.660Z,97027.28
2023-03-19T01:37:43.940Z,97023.69
2023-03-19T01:40:48.577Z,97018.25
2023-03-19T01:43:50.622Z,97014.78
2023-03-19T01:47:26.067Z,97005.94
2023-03-19T01:50:53.833Z,97008.53
2023-03-19T01:54:19.073Z,97010.03
2023-03-19T01:57:24.514Z,97011.19
2023-03-19T02:00:39.194Z,97019.69
2023-03-19T02:03:42.322Z,97021.16
2023-03-19T02:07:00.735Z,97031.50
2023-03-19T02:10:07.228Z,97023.88
2023-03-19T02:13:08.878Z,97029.78
2023-03-19T02:16:11.053Z,97017.94
2023-03-19T02:19:19.046Z,97030.16
2023-03-19T02:22:23.786Z,97027.34
2023-03-19T02:25:33.060Z,97025.06
2023-03-19T02:28:39.773Z,97013.38
2023-03-19T02:31:42.210Z,97021.91
2023-03-19T02:34:44.610Z,97021.06
2023-03-19T02:37:46.915Z,97018.16
2023-03-19T02:41:04.539Z,97026.78
2023-03-19T02:44:06.637Z,97013.97
2023-03-19T02:47:08.385Z,97014.09
2023-03-19T02:50:10.467Z,97013.38
2023-03-19T02:53:12.236Z,97023.25
2023-03-19T02:56:13.766Z,97020.34
2023-03-19T02:59:15.472Z,97009.56
2023-03-19T03:02:17.573Z,97012.22
2023-03-19T03:05:19.054Z,97023.84
2023-03-19T03:08:21.637Z,97018.25
2023-03-19T03:11:23.164Z,97018.25
2023-03-19T03:14:24.832Z,97015.47
2023-03-19T03:17:27.003Z,97019.19
2023-03-19T03:20:28.517Z,97017.91
2023-03-19T03:23:30.008Z,97013.94
2023-03-19T03:26:31.742Z,97016.59
2023-03-19T03:29:33.197Z,97018.00
2023-03-19T03:32:36.729Z,97020.00
2023-03-19T03:35:38.895Z,97016.38
2023-03-19T03:38:40.688Z,97019.94
2023-03-19T03:41:42.431Z,97018.56
2023-03-19T03:44:44.523Z,97018.13
2023-03-19T03:47:46.305Z,97014.28
2023-03-19T03:50:47.931Z,97025.78
2023-03-19T03:53:53.246Z,97025.56
2023-03-19T03:56:54.837Z,97029.97
2023-03-19T03:59:56.509Z,97033.38
2023-03-19T04:02:59.299Z,97025.56
2023-03-19T04:06:00.857Z,97031.63
2023-03-19T04:09:02.923Z,97044.53
2023-03-19T04:12:04.873Z,97044.53
2023-03-19T04:15:08.076Z,97060.22
2023-03-19T04:18:11.743Z,97055.56
2023-03-19T04:21:13.604Z,97051.59
2023-03-19T04:24:15.495Z,97056.50
2023-03-19T04:27:17.043Z,97058.47
2023-03-19T04:30:18.972Z,97056.22
2023-03-19T04:33:20.569Z,97057.50
2023-03-19T04:36:22.512Z,97068.06
2023-03-19T04:39:24.731Z,97061.84
2023-03-19T04:42:26.974Z,97053.63
2023-03-19T04:45:39.129Z,97058.81
2023-03-19T04:48:41.055Z,97054.16
2023-03-19T04:51:42.757Z,97066.75
2023-03-19T04:54:44.273Z,97059.03
2023-03-19T04:57:45.864Z,97061.59
2023-03-19T05:00:48.040Z,97064.38
2023-03-19T05:03:54.310Z,97069.63
2023-03-19T05:06:57.416Z,97056.53
2023-03-19T05:09:59.245Z,97065.63
2023-03-19T05:13:00.846Z,97062.59
2023-03-19T05:16:02.674Z,97062.81
2023-03-19T05:19:05.252Z,97062.59
2023-03-19T05:22:07.653Z,97060.00
2023-03-19T05:25:09.825Z,97067.34
2023-03-19T05:28:14.857Z,97064.31
2023-03-19T05:31:17.307Z,97069.78
2023-03-19T05:34:23.445Z,97070.97
2023-03-19T05:37:26.667Z,97077.50
2023-03-19T05:40:32.022Z,97069.53
2023-03-19T05:43:38.169Z,97072.75
2023-03-19T05:46:43.729Z,97072.53
2023-03-19T05:49:46.046Z,97061.53
2023-03-19T05:52:47.860Z,97071.41
2023-03-19T05:55:49.367Z,97068.31
2023-03-19T05:58:51.057Z,97077.13
2023-03-19T06:01:57.140Z,97074.50
2023-03-19T06:04:58.823Z,97082.91
2023-03-19T06:08:04.254Z,97082.66
2023-03-19T06:11:19.292Z,97088.28
2023-03-19T06:14:26.785Z,97074.59
2023-03-19T06:17:51.218Z,97070.59
2023-03-19T06:20:52.978Z,97083.94
2023-03-19T06:23:54.659Z,97091.47
2023-03-19T06:27:03.701Z,97089.03
2023-03-19T06:30:05.849Z,97095.19
2023-03-19T06:33:08.329Z,97094.81
2023-03-19T06:36:09.945Z,97100.56
2023-03-19T06:39:11.552Z,97099.78
2023-03-19T06:42:13.243Z,97095.72
2023-03-19T06:45:16.523Z,97099.78
2023-03-19T06:48:18.783Z,97100.06
2023-03-19T06:51:20.454Z,97108.59
2023-03-19T06:54:22.374Z,97106.84
2023-03-19T06:57:23.895Z,97102.59
2023-03-19T07:00:25.416Z,97116.66
2023-03-19T07:03:26.939Z,97119.13
2023-03-19T07:06:28.433Z,97126.22
2023-03-19T07:09:29.916Z,97111.81
2023-03-19T07:12:31.531Z,97115.09
2023-03-19T07:15:33.908Z,97121.56
2023-03-19T07:18:35.919Z,97119.94
2023-03-19T07:21:37.424Z,97119.56
2023-03-19T07:24:38.879Z,97119.72
2023-03-19T07:27:40.397Z,97122.03
2023-03-19T07:30:42.097Z,97131.00
2023-03-19T07:33:43.684Z,97135.00
2023-03-19T07:36:45.146Z,97130.34
2023-03-19T07:39:46.890Z,97131.84
2023-03-19T07:42:48.413Z,97133.94
2023-03-19T07:45:49.869Z,97134.28
2023-03-19T07:48:51.360Z,97129.97
2023-03-19T07:51:53.855Z,97134.41
2023-03-19T07:54:56.035Z,97136.16
2023-03-19T07:57:57.703Z,97143.19
2023-03-19T08:00:59.226Z,97135.84
2023-03-19T08:04:00.787Z,97138.56
2023-03-19T08:07:02.289Z,97134.25
2023-03-19T08:10:05.557Z,97133.44
2023-03-19T08:13:07.165Z,97135.22
2023-03-19T08:16:09.316Z,97136.88
2023-03-19T08:19:10.770Z,97136.69
2023-03-19T08:22:12.649Z,97130.28
2023-03-19T08:25:14.588Z,97125.53
2023-03-19T08:28:16.177Z,97129.75
2023-03-19T08:31:17.701Z,97132.63
2023-03-19T08:34:19.429Z,97132.78
2023-03-19T08:37:20.894Z,97128.81
2023-03-19T08:40:23.390Z,97126.13
2023-03-19T08:43:25.133Z,97119.38
2023-03-19T08:46:27.611Z,97122.91
2023-03-19T08:49:29.454Z,97117.97
2023-03-19T08:52:31.279Z,97123.19
2023-03-19T08:55:32.906Z,97123.94
2023-03-19T08:58:34.827Z,97128.44
2023-03-19T09:01:37.257Z,97138.91
2023-03-19T09:04:43.243Z,97135.72
2023-03-19T09:07:45.551Z,97136.88
2023-03-19T09:10:47.115Z,97141.28
2023-03-19T09:13:48.748Z,97143.19
2023-03-19T09:16:50.314Z,97139.72
2023-03-19T09:19:51.879Z,97150.56
2023-03-19T09:22:53.397Z,97138.34
2023-03-19T09:25:54.965Z,97135.97
2023-03-19T09:28:56.567Z,97149.28
2023-03-19T09:31:58.227Z,97140.41
2023-03-19T09:34:59.729Z,97142.88
2023-03-19T09:38:02.137Z,97153.34
2023-03-19T09:41:31.530Z,97145.78
2023-03-19T09:44:38.057Z,97148.47
2023-03-19T09:47:40.088Z,97151.97
2023-03-19T09:50:42.458Z,97143.13
2023-03-19T09:53:58.605Z,97140.44
2023-03-19T09:57:01.100Z,97137.91
2023-03-19T10:00:18.987Z,97134.88
2023-03-19T10:03:52.387Z,97145.22
2023-03-19T10:07:04.128Z,97146.63
2023-03-19T10:10:33.413Z,97138.94
2023-03-19T10:14:06.941Z,97141.09
2023-03-19T10:17:16.421Z,97146.81
2023-03-19T10:20:30.374Z,97142.00
2023-03-19T10:23:45.684Z,97144.94
2023-03-19T10:26:47.831Z,97139.22
2023-03-19T10:29:49.427Z,97148.81
2023-03-19T10:33:17.373Z,97156.50
2023-03-19T10:36:22.163Z,97156.88
2023-03-19T10:39:24.085Z,97156.72
2023-03-19T10:42:39.280Z,97166.44
2023-03-19T10:45:41.299Z,97162.03
2023-03-19T10:48:45.846Z,97165.63
2023-03-19T10:51:48.810Z,97165.75
2023-03-19T10:54:55.958Z,97157.56
2023-03-19T10:58:06.730Z,97173.88
2023-03-19T11:01:12.975Z,97172.16
2023-03-19T11:04:19.421Z,97176.03
2023-03-19T11:07:21.783Z,97160.47
2023-03-19T11:10:25.833Z,97170.66
2023-03-19T11:13:27.647Z,97175.38
2023-03-19T11:16:29.245Z,97167.53
2023-03-19T11:19:34.451Z,97164.75
2023-03-19T11:22:37.698Z,97168.28
2023-03-19T11:25:51.810Z,97168.84
2023-03-19T11:28:53.493Z,97156.97
2023-03-19T11:32:26.386Z,97151.75
2023-03-19T11:36:18.914Z,97149.91
2023-03-19T11:39:35.675Z,97149.66
2023-03-19T11:42:55.905Z,97140.81
2023-03-19T11:46:19.738Z,97135.13
2023-03-19T11:49:29.927Z,97138.63
2023-03-19T11:53:02.575Z,97136.38
2023-03-19T11:56:33.641Z,97137.09
2023-03-19T12:00:07.948Z,97131.13
2023-03-19T12:03:22.375Z,97132.25
2023-03-19T12:06:57.055Z,97133.38
2023-03-19T12:10:35.273Z,97134.63
2023-03-19T12:13:46.054Z,97130.69
2023-03-19T12:17:07.242Z,97130.31
2023-03-19T12:20:42.181Z,97121.72
2023-03-19T12:23:53.726Z,97127.78
2023-03-19T12:27:04.327Z,97121.59
2023-03-19T12:30:18.122Z,97122.41
2023-03-19T12:33:32.516Z,97133.69
2023-03-19T12:36:45.872Z,97126.78
2023-03-19T12:40:22.098Z,97121.34
2023-03-19T12:43:42.173Z,97119.44
2023-03-19T12:46:58.570Z,97121.16
2023-03-19T12:50:05.576Z,97129.03
2023-03-19T12:53:17.177Z,97122.97
2023-03-19T12:56:39.284Z,97135.56
2023-03-19T12:59:54.368Z,97126.84
2023-03-19T13:03:05.160Z,97133.91
2023-03-19T13:06:12.937Z,97132.06
2023-03-19T13:09:43.841Z,97137.97
2023-03-19T13:12:47.853Z,97127.31
2023-03-19T13:15:52.652Z,97123.94
2023-03-19T13:19:01.365Z,97117.16
2023-03-19T13:22:09.776Z,97128.28
2023-03-19T13:25:17.591Z,97119.75
2023-03-19T13:28:37.955Z,97119.44
2023-03-19T13:31:39.844Z,97113.28
2023-03-19T13:34:41.534Z,97114.19
2023-03-19T13:37:43.869Z,97124.03
2023-03-19T13:40:52.526Z,97115.53
2023-03-19T13:43:55.024Z,97115.28
2023-03-19T13:46:57.625Z,97115.41
2023-03-19T13:50:20.153Z,97107.38
2023-03-19T13:53:34.649Z,97109.34
2023-03-19T13:57:08.687Z,97113.19
2023-03-19T14:00:43.874Z,97101.88
2023-03-19T14:04:16.878Z,97100.84
2023-03-19T14:07:21.038Z,97106.00
2023-03-19T14:10:28.976Z,97102.06
2023-03-19T14:13:47.367Z,97120.19
2023-03-19T14:16:52.721Z,97109.47
2023-03-19T14:19:54.682Z,97101.44
2023-03-19T14:23:11.667Z,97104.81
2023-03-19T14:26:23.192Z,97117.94
2023-03-19T14:29:26.428Z,97100.72
2023-03-19T14:32:40.926Z,97101.66
2023-03-19T14:35:46.654Z,97099.94
2023-03-19T14:38:55.944Z,97107.06
2023-03-19T14:42:22.359Z,97102.88
2023-03-19T14:45:35.180Z,97102.31
2023-03-19T14:48:51.157Z,97099.28
2023-03-19T14:52:07.658Z,97109.06
2023-03-19T14:55:12.769Z,97109.03
2023-03-19T14:58:14.859Z,97114.94
2023-03-19T15:01:17.294Z,97118.28
2023-03-19T15:04:22.783Z,97119.44
2023-03-19T15:07:35.021Z,97127.38
2023-03-19T15:11:03.471Z,97127.78
2023-03-19T15:14:17.163Z,97126.69
2023-03-19T15:17:25.719Z,97140.47
2023-03-19T15:20:38.030Z,97141.44
2023-03-19T15:23:41.630Z,97138.19
2023-03-19T15:26:43.691Z,97142.69
2023-03-19T15:29:49.014Z,97147.97
2023-03-19T15:33:07.833Z,97147.69
2023-03-19T15:36:12.914Z,97149.31
2023-03-19T15:39:19.404Z,97150.09
2023-03-19T15:42:23.241Z,97159.34
2023-03-19T15:45:27.025Z,97165.84
2023-03-19T15:48:38.225Z,97156.34
2023-03-19T15:51:40.723Z,97153.41
2023-03-19T15:54:42.919Z,97161.13
2023-03-19T15:57:45.221Z,97164.31
2023-03-19T16:00:47.096Z,97156.19
2023-03-19T16:03:59.859Z,97157.44
2023-03-19T16:07:01.899Z,97156.44
2023-03-19T16:10:27.998Z,97169.81
2023-03-19T16:13:39.542Z,97158.88
2023-03-19T16:16:42.223Z,97155.94
2023-03-19T16:19:56.393Z,97158.28
2023-03-19T16:23:01.110Z,97148.72
2023-03-19T16:26:15.110Z,97162.06
2023-03-19T16:29:28.727Z,97154.09
2023-03-19T16:32:32.143Z,97162.88
2023-03-19T16:35:34.920Z,97167.03
2023-03-19T16:38:44.370Z,97170.41
2023-03-19T16:42:10.965Z,97164.09
2023-03-19T16:45:15.401Z,97170.53
2023-03-19T16:48:16.900Z,97172.44
2023-03-19T16:51:21.127Z,97170.16
2023-03-19T16:54:23.716Z,97167.06
2023-03-19T16:57:25.747Z,97176.16
2023-03-19T17:00:31.383Z,97178.91
2023-03-19T17:03:33.404Z,97180.94
2023-03-19T17:06:34.875Z,97185.81
2023-03-19T17:09:36.634Z,97192.66
2023-03-19T17:12:38.403Z,97186.22
2023-03-19T17:15:42.289Z,97188.56
2023-03-19T17:18:44.945Z,97188.84
2023-03-19T17:21:48.797Z,97191.00
2023-03-19T17:24:50.572Z,97190.22
2023-03-19T17:27:52.170Z,97192.16
2023-03-19T17:30:53.775Z,97194.31
2023-03-19T17:34:31.795Z,97191.97
2023-03-19T17:37:33.322Z,97203.63
2023-03-19T17:40:35.472Z,97198.69
2023-03-19T17:43:37.285Z,97200.34
2023-03-19T17:46:42.841Z,97199.75
2023-03-19T17:49:45.203Z,97202.69
2023-03-19T17:52:47.194Z,97213.56
2023-03-19T17:55:48.661Z,97215.09
2023-03-19T17:58:50.593Z,97218.38
2023-03-19T18:01:52.312Z,97216.22
2023-03-19T18:04:53.796Z,97234.44
2023-03-19T18:07:56.277Z,97237.75
2023-03-19T18:10:57.790Z,97242.94
2023-03-19T18:13:59.371Z,97248.19
2023-03-19T18:17:01.195Z,97255.69
2023-03-19T18:20:04.377Z,97259.84
2023-03-19T18:23:06.683Z,97262.41
2023-03-19T18:26:08.689Z,97261.69
2023-03-19T18:29:10.304Z,97270.63
2023-03-19T18:32:15.955Z,97270.88
2023-03-19T18:35:21.073Z,97271.53
2023-03-19T18:38:24.962Z,97287.28
2023-03-19T18:41:30.999Z,97332.59
2023-03-19T18:44:38.268Z,97350.53
2023-03-19T18:47:41.380Z,97365.75
2023-03-19T18:50:42.984Z,97379.59
2023-03-19T18:53:44.515Z,97394.03
2023-03-19T18:56:47.949Z,97394.56
2023-03-19T18:59:49.552Z,97399.84
2023-03-19T19:02:53.148Z,97401.84
2023-03-19T19:05:56.089Z,97398.31
2023-03-19T19:08:57.655Z,97398.47
2023-03-19T19:12:00.758Z,97396.84
2023-03-19T19:15:05.025Z,97397.63
2023-03-19T19:18:21.643Z,97405.88
2023-03-19T19:21:23.458Z,97400.56
2023-03-19T19:24:25.051Z,97399.69
2023-03-19T19:27:26.749Z,97392.28
2023-03-19T19:30:28.791Z,97386.69
2023-03-19T19:33:36.953Z,97397.59
2023-03-19T19:36:38.462Z,97391.41
2023-03-19T19:39:40.219Z,97386.66
2023-03-19T19:42:43.983Z,97384.66
2023-03-19T19:45:48.436Z,97369.78
2023-03-19T19:48:50.140Z,97373.28
2023-03-19T19:51:51.808Z,97364.88
2023-03-19T19:54:53.448Z,97361.19
2023-03-19T19:57:57.432Z,97357.25
2023-03-19T20:01:04.224Z,97359.72
2023-03-19T20:04:06.196Z,97358.59
2023-03-19T20:07:07.771Z,97354.91
2023-03-19T20:10:10.109Z,97354.72
2023-03-19T20:13:22.716Z,97358.28
2023-03-19T20:16:26.023Z,97360.34
2023-03-19T20:19:27.531Z,97369.03
2023-03-19T20:22:29.610Z,97365.81
2023-03-19T20:25:34.984Z,97360.25
2023-03-19T20:28:36.676Z,97365.38
2023-03-19T20:31:38.585Z,97363.16
2023-03-19T20:34:40.131Z,97364.63
2023-03-19T20:37:41.640Z,97365.50
2023-03-19T20:40:52.112Z,97369.59
2023-03-19T20:43:55.105Z,97375.16
2023-03-19T20:46:56.617Z,97375.97
2023-03-19T20:49:58.197Z,97376.63
2023-03-19T20:53:03.570Z,97375.63
2023-03-19T20:56:11.592Z,97374.44
2023-03-19T20:59:13.038Z,97382.22
2023-03-19T21:02:20.443Z,97384.50
2023-03-19T21:05:23.600Z,97397.22
2023-03-19T21:08:37.160Z,97402.94
2023-03-19T21:11:41.921Z,97397.66
2023-03-19T21:14:43.440Z,97398.66
2023-03-19T21:17:44.974Z,97399.72
2023-03-19T21:20:50.880Z,97405.69
2023-03-19T21:24:01.068Z,97403.63
2023-03-19T21:27:04.068Z,97416.72
2023-03-19T21:30:06.518Z,97423.72
2023-03-19T21:33:23.207Z,97433.97
2023-03-19T21:36:24.768Z,97435.19
2023-03-19T21:39:26.266Z,97439.28
2023-03-19T21:42:30.349Z,97442.53
2023-03-19T21:45:36.402Z,97439.69
2023-03-19T21:48:39.910Z,97441.75
2023-03-19T21:51:43.879Z,97448.13
2023-03-19T21:54:45.918Z,97438.47
2023-03-19T21:57:47.585Z,97448.72
2023-03-19T22:00:49.588Z,97457.94
2023-03-19T22:03:52.992Z,97443.41
2023-03-19T22:06:54.535Z,97451.81
2023-03-19T22:09:55.987Z,97463.94
2023-03-19T22:12:57.584Z,97463.28
2023-03-19T22:16:00.389Z,97462.25
2023-03-19T22:19:02.256Z,97462.47
2023-03-19T22:22:03.872Z,97462.03
2023-03-19T22:25:05.729Z,97472.72
2023-03-19T22:28:35.882Z,97480.28
2023-03-19T22:31:37.489Z,97472.66
2023-03-19T22:34:39.077Z,97489.09
2023-03-19T22:37:40.746Z,97491.34
2023-03-19T22:40:45.969Z,97494.22
2023-03-19T22:43:47.890Z,97487.22
2023-03-19T22:46:49.655Z,97486.81
2023-03-19T22:49:51.991Z,97491.56
2023-03-19T22:52:54.586Z,97491.75
2023-03-19T22:55:57.019Z,97495.69
2023-03-19T22:58:58.481Z,97487.47
2023-03-19T23:02:00.304Z,97491.63
2023-03-19T23:05:02.174Z,97491.22
2023-03-19T23:08:06.183Z,97492.25
2023-03-19T23:11:08.602Z,97493.91
2023-03-19T23:14:26.139Z,97488.13
2023-03-19T23:17:29.899Z,97485.66
2023-03-19T23:20:35.027Z,97486.06
2023-03-19T23:23:36.563Z,97487.28
2023-03-19T23:26:40.496Z,97488.13
2023-03-19T23:29:44.267Z,97486.47
2023-03-19T23:32:45.747Z,97490.97
2023-03-19T23:35:48.255Z,97485.84
2023-03-19T23:38:49.755Z,97487.28
2023-03-19T23:41:57.128Z,97477.84
2023-03-19T23:45:01.939Z,97479.50
2023-03-19T23:48:06.238Z,97488.72
2023-03-19T23:51:10.947Z,97485.19
2023-03-19T23:54:32.613Z,97483.13
2023-03-19T23:57:37.108Z,97489.69
